Airfield :
LOGIN :

Register | Disclaimer

   EN    FR    IT 

 










Legend :    VFR   Marginal VFR   IFR   Intensive IFR   Very Intensive IFR
Visi :
Ceiling :
>= 8 km
>= 3000ft
5 to 8 km
1000 to 3000 ft
1500m to 5 km
500 to 1000 ft
800 to 1500m
200 to 500 ft
< 800m
< 200 ft
Symbols :   Thunderstorms  Fog  Heavy snow  Heavy precipitations  Wind > 20 kt
SIGMETs :     Misc.  Thunderstorms  Icing  Turbulence  Mountain Waves  Volcanic Ashes






- Airport Elevation : 156 ft
- IATA code : MLN


GEML - Melilla

CURRENT METAR :
  • 022130Z AUTO 28003KT 240V320 CAVOK 22/18 Q1016

EXPIRED METARs :
  • 022100Z AUTO 28003KT 250V320 CAVOK 22/18 Q1016
  • 022030Z AUTO 30004KT CAVOK 22/18 Q1015
  • 022000Z AUTO 27005KT 240V310 9999 SCT020 22/18 Q1015
  • 021930Z AUTO 31004KT 270V350 9999 SCT018 22/17 Q1014
  • 021900Z AUTO 02006KT 330V040 9999 FEW022 23/18 Q1014

TAF TAF GEML
Valid from the 02 at 18:00 until the 03 at 18:00 UTC


021700Z 0218/0318 VRB02KT 9999 SCT020 TX26/0312Z TN20/0305Z
TEMPO 0300/0312 BKN012
BECMG 0310/0313 07010KT



MET'MAP, your aeronautical weather chart ! - Copyright ORBIFLY December 2007 - Disclaimer

ORBIFLY MET'MAP TEAM :

Programming & Development : Alexandra Zaïnal
Concept & original design : Baudouin d'Aumeries
Assistance for programming : Marc-Olivier Méhu
Technical & hardware support : Manuel Goepfert

Contact : metmap@orbifly.com




SOURCES & CREDITS :

   NOAA